createdAt,value
2017-07-22T00:01:15.262Z,6.13
2017-07-22T00:03:41.968Z,6.93
2017-07-22T00:06:08.822Z,8.90
2017-07-22T00:08:35.468Z,9.10
2017-07-22T00:11:02.147Z,9.13
2017-07-22T00:13:28.733Z,6.23
2017-07-22T00:15:55.318Z,4.90
2017-07-22T00:18:21.894Z,4.83
2017-07-22T00:20:48.521Z,4.70
2017-07-22T00:23:15.122Z,4.23
2017-07-22T00:25:41.722Z,4.60
2017-07-22T00:28:08.455Z,6.63
2017-07-22T00:30:35.076Z,9.83
2017-07-22T00:33:01.692Z,7.27
2017-07-22T00:35:28.282Z,7.17
2017-07-22T00:37:54.893Z,7.00
2017-07-22T00:40:21.474Z,7.60
2017-07-22T00:42:48.059Z,6.50
2017-07-22T00:45:14.720Z,5.93
2017-07-22T00:47:41.333Z,6.50
2017-07-22T00:50:07.947Z,6.27
2017-07-22T00:52:34.905Z,6.23
2017-07-22T00:55:01.504Z,6.33
2017-07-22T00:57:28.089Z,6.87
2017-07-22T00:59:54.779Z,6.63
2017-07-22T01:02:21.333Z,5.60
2017-07-22T01:04:47.930Z,6.57
2017-07-22T01:07:14.506Z,5.80
2017-07-22T01:09:41.113Z,6.70
2017-07-22T01:12:07.751Z,6.80
2017-07-22T01:14:34.379Z,5.80
2017-07-22T01:17:01.227Z,6.43
2017-07-22T01:19:27.802Z,7.20
2017-07-22T01:21:54.377Z,6.30
2017-07-22T01:24:20.961Z,5.97
2017-07-22T01:26:47.542Z,5.93
2017-07-22T01:29:14.141Z,6.20
2017-07-22T01:31:40.741Z,6.13
2017-07-22T01:34:07.563Z,6.40
2017-07-22T01:36:34.150Z,6.20
2017-07-22T01:39:00.903Z,6.97
2017-07-22T01:41:27.523Z,6.63
2017-07-22T01:43:54.102Z,6.57
2017-07-22T01:46:20.686Z,6.63
2017-07-22T01:48:47.282Z,6.77
2017-07-22T01:51:13.961Z,7.00
2017-07-22T01:53:40.592Z,6.37
2017-07-22T01:56:07.202Z,6.03
2017-07-22T01:58:33.921Z,6.40
2017-07-22T02:01:00.532Z,6.50
2017-07-22T02:03:27.102Z,5.43
2017-07-22T02:05:53.697Z,5.90
2017-07-22T02:08:20.281Z,6.27
2017-07-22T02:10:46.859Z,6.33
2017-07-22T02:13:13.527Z,5.37
2017-07-22T02:15:40.253Z,5.83
2017-07-22T02:18:06.873Z,4.60
2017-07-22T02:20:33.450Z,5.13
2017-07-22T02:23:00.092Z,5.03
2017-07-22T02:25:26.681Z,5.40
2017-07-22T02:27:53.267Z,5.23
2017-07-22T02:30:19.862Z,5.67
2017-07-22T02:32:46.440Z,5.20
2017-07-22T02:35:13.046Z,5.70
2017-07-22T02:37:39.646Z,5.37
2017-07-22T02:40:06.288Z,5.10
2017-07-22T02:42:32.885Z,5.27
2017-07-22T02:44:59.485Z,5.53
2017-07-22T02:47:26.114Z,5.73
2017-07-22T02:49:52.699Z,4.50
2017-07-22T02:52:19.278Z,4.33
2017-07-22T02:54:45.876Z,4.63
2017-07-22T02:57:12.514Z,5.70
2017-07-22T02:59:39.614Z,5.50
2017-07-22T03:02:06.260Z,4.83
2017-07-22T03:04:32.917Z,4.67
2017-07-22T03:06:59.505Z,5.20
2017-07-22T03:09:26.089Z,5.00
2017-07-22T03:11:52.661Z,5.27
2017-07-22T03:14:19.248Z,5.63
2017-07-22T03:16:45.830Z,5.20
2017-07-22T03:19:12.462Z,5.20
2017-07-22T03:21:39.590Z,4.63
2017-07-22T03:24:06.250Z,5.90
2017-07-22T03:26:32.817Z,5.37
2017-07-22T03:28:59.556Z,4.70
2017-07-22T03:31:26.117Z,4.90
2017-07-22T03:33:52.697Z,5.07
2017-07-22T03:36:19.289Z,5.10
2017-07-22T03:38:45.866Z,5.30
2017-07-22T03:41:12.461Z,5.30
2017-07-22T03:43:39.105Z,5.50
2017-07-22T03:46:06.036Z,5.23
2017-07-22T03:48:32.798Z,4.80
2017-07-22T03:50:59.374Z,5.43
2017-07-22T03:53:25.950Z,5.70
2017-07-22T03:55:52.535Z,5.97
2017-07-22T03:58:19.125Z,5.57
2017-07-22T04:00:45.718Z,5.73
2017-07-22T04:03:12.372Z,5.63
2017-07-22T04:05:39.223Z,5.00
2017-07-22T04:08:05.821Z,5.20
2017-07-22T04:10:32.398Z,5.50
2017-07-22T04:12:59.138Z,5.80
2017-07-22T04:15:25.717Z,5.30
2017-07-22T04:17:52.290Z,5.57
2017-07-22T04:20:19.003Z,5.60
2017-07-22T04:22:45.630Z,5.90
2017-07-22T04:25:12.261Z,5.00
2017-07-22T04:27:38.934Z,5.80
2017-07-22T04:30:05.596Z,5.80
2017-07-22T04:32:32.186Z,5.70
2017-07-22T04:34:58.777Z,5.83
2017-07-22T04:37:25.359Z,5.67
2017-07-22T04:39:51.953Z,5.60
2017-07-22T04:42:18.549Z,5.30
2017-07-22T04:44:45.141Z,5.60
2017-07-22T04:47:11.771Z,5.77
2017-07-22T04:49:38.857Z,5.90
2017-07-22T04:52:06.308Z,5.63
2017-07-22T04:54:32.881Z,5.60
2017-07-22T04:56:59.465Z,6.07
2017-07-22T04:59:26.059Z,6.00
2017-07-22T05:01:52.645Z,6.03
2017-07-22T05:04:19.234Z,5.70
2017-07-22T05:06:45.823Z,5.57
2017-07-22T05:09:12.419Z,5.60
2017-07-22T05:11:39.607Z,6.20
2017-07-22T05:14:06.410Z,5.60
2017-07-22T05:16:33.050Z,6.43
2017-07-22T05:18:59.655Z,6.27
2017-07-22T05:21:26.225Z,5.93
2017-07-22T05:23:52.872Z,6.33
2017-07-22T05:26:19.443Z,6.03
2017-07-22T05:28:46.022Z,5.80
2017-07-22T05:31:12.631Z,6.50
2017-07-22T05:33:39.314Z,5.90
2017-07-22T05:36:06.035Z,6.37
2017-07-22T05:38:32.608Z,6.50
2017-07-22T05:40:59.198Z,5.90
2017-07-22T05:43:25.774Z,5.60
2017-07-22T05:45:52.374Z,6.10
2017-07-22T05:48:18.954Z,5.90
2017-07-22T05:50:45.781Z,5.60
2017-07-22T05:53:12.411Z,6.90
2017-07-22T05:55:38.986Z,6.37
2017-07-22T05:58:05.632Z,6.27
2017-07-22T06:00:32.237Z,6.43
2017-07-22T06:02:58.853Z,6.30
2017-07-22T06:05:25.429Z,6.30
2017-07-22T06:07:52.041Z,5.63
2017-07-22T06:10:18.633Z,5.70
2017-07-22T06:12:45.258Z,6.10
2017-07-22T06:15:12.051Z,5.93
2017-07-22T06:17:38.740Z,5.53
2017-07-22T06:20:05.326Z,5.57
2017-07-22T06:22:31.927Z,5.70
2017-07-22T06:24:58.505Z,5.97
2017-07-22T06:27:25.102Z,5.53
2017-07-22T06:29:51.701Z,5.47
2017-07-22T06:32:18.274Z,5.90
2017-07-22T06:34:44.870Z,5.47
2017-07-22T06:37:11.668Z,5.47
2017-07-22T06:39:38.645Z,6.17
2017-07-22T06:42:05.375Z,5.67
2017-07-22T06:44:31.965Z,5.90
2017-07-22T06:46:58.594Z,5.47
2017-07-22T06:49:25.153Z,5.80
2017-07-22T06:51:51.742Z,6.30
2017-07-22T06:54:18.321Z,5.97
2017-07-22T06:56:44.963Z,6.03
2017-07-22T06:59:11.677Z,6.03
2017-07-22T07:01:38.313Z,5.87
2017-07-22T07:04:05.235Z,6.50
2017-07-22T07:06:31.843Z,5.63
2017-07-22T07:08:58.433Z,6.37
2017-07-22T07:11:25.049Z,5.70
2017-07-22T07:13:51.629Z,6.10
2017-07-22T07:16:18.221Z,6.57
2017-07-22T07:18:44.805Z,5.70
2017-07-22T07:21:11.391Z,5.70
2017-07-22T07:23:38.070Z,5.23
2017-07-22T07:26:15.114Z,6.30
2017-07-22T07:28:41.714Z,6.40
2017-07-22T07:31:08.645Z,5.47
2017-07-22T07:33:43.377Z,5.80
2017-07-22T07:36:10.094Z,5.50
2017-07-22T07:38:36.706Z,5.23
2017-07-22T07:41:03.321Z,5.87
2017-07-22T07:43:29.918Z,5.60
2017-07-22T07:45:56.523Z,5.37
2017-07-22T07:48:23.092Z,5.07
2017-07-22T07:50:49.666Z,5.47
2017-07-22T07:53:16.252Z,5.70
2017-07-22T07:55:43.934Z,5.10
2017-07-22T07:58:14.430Z,5.07
2017-07-22T08:00:41.024Z,5.43
2017-07-22T08:03:14.251Z,4.93
2017-07-22T08:05:43.953Z,5.13
2017-07-22T08:08:10.578Z,5.13
2017-07-22T08:10:37.180Z,4.97
2017-07-22T08:13:03.763Z,5.17
2017-07-22T08:15:30.376Z,4.83
2017-07-22T08:17:56.954Z,5.40
2017-07-22T08:20:23.601Z,4.63
2017-07-22T08:22:50.181Z,5.20
2017-07-22T08:25:16.768Z,5.10
2017-07-22T08:27:43.410Z,5.13
2017-07-22T08:30:10.021Z,5.20
2017-07-22T08:32:37.038Z,4.70
2017-07-22T08:35:03.645Z,4.43
2017-07-22T08:37:30.235Z,4.70
2017-07-22T08:39:56.908Z,4.70
2017-07-22T08:42:23.504Z,4.70
2017-07-22T08:44:50.104Z,4.60
2017-07-22T08:47:16.781Z,4.33
2017-07-22T08:49:43.428Z,4.20
2017-07-22T08:52:10.202Z,4.73
2017-07-22T08:54:37.782Z,4.53
2017-07-22T08:57:04.369Z,5.00
2017-07-22T08:59:30.992Z,4.33
2017-07-22T09:01:57.576Z,4.17
2017-07-22T09:04:24.162Z,4.10
2017-07-22T09:06:50.743Z,4.20
2017-07-22T09:09:17.330Z,4.20
2017-07-22T09:11:43.977Z,4.13
2017-07-22T09:14:10.685Z,4.00
2017-07-22T09:16:37.329Z,4.50
2017-07-22T09:19:03.962Z,4.43
2017-07-22T09:21:30.541Z,4.37
2017-07-22T09:24:04.818Z,4.00
2017-07-22T09:26:31.391Z,4.20
2017-07-22T09:28:57.981Z,3.80
2017-07-22T09:31:24.620Z,4.30
2017-07-22T09:33:51.189Z,3.53
2017-07-22T09:36:17.922Z,3.80
2017-07-22T09:38:44.581Z,3.23
2017-07-22T09:41:11.196Z,3.50
2017-07-22T09:43:37.825Z,3.57
2017-07-22T09:46:04.428Z,3.63
2017-07-22T09:48:31.024Z,3.10
2017-07-22T09:50:57.601Z,3.20
2017-07-22T09:53:24.196Z,3.00
2017-07-22T09:55:50.792Z,3.10
2017-07-22T09:58:17.393Z,3.10
2017-07-22T10:00:44.075Z,3.57
2017-07-22T10:03:10.668Z,3.13
2017-07-22T10:05:37.298Z,3.30
2017-07-22T10:08:03.916Z,3.20
2017-07-22T10:10:30.500Z,3.37
2017-07-22T10:12:57.142Z,3.70
2017-07-22T10:15:23.705Z,3.00
2017-07-22T10:17:50.329Z,3.40
2017-07-22T10:20:16.918Z,3.10
2017-07-22T10:22:43.518Z,3.50
2017-07-22T10:25:10.126Z,2.83
2017-07-22T10:27:36.851Z,3.10
2017-07-22T10:30:03.423Z,3.20
2017-07-22T10:32:30.043Z,3.20
2017-07-22T10:34:56.633Z,3.40
2017-07-22T10:37:23.217Z,3.70
2017-07-22T10:39:49.838Z,3.27
2017-07-22T10:42:16.410Z,3.40
2017-07-22T10:44:43.010Z,4.27
2017-07-22T10:47:09.654Z,3.80
2017-07-22T10:49:36.283Z,4.07
2017-07-22T10:52:02.950Z,3.70
2017-07-22T10:54:29.647Z,3.33
2017-07-22T10:56:56.225Z,3.70
2017-07-22T10:59:22.801Z,3.83
2017-07-22T11:01:49.382Z,3.87
2017-07-22T11:04:15.997Z,4.07
2017-07-22T11:06:42.613Z,3.60
2017-07-22T11:09:09.324Z,3.63
2017-07-22T11:11:35.989Z,3.97
2017-07-22T11:14:02.591Z,4.37
2017-07-22T11:16:29.172Z,4.33
2017-07-22T11:18:55.758Z,4.30
2017-07-22T11:21:22.333Z,4.13
2017-07-22T11:23:48.914Z,4.37
2017-07-22T11:26:15.622Z,4.20
2017-07-22T11:28:42.748Z,4.10
2017-07-22T11:31:09.446Z,4.10
2017-07-22T11:33:36.262Z,4.27
2017-07-22T11:36:03.075Z,4.00
2017-07-22T11:38:29.738Z,4.67
2017-07-22T11:40:56.351Z,4.00
2017-07-22T11:43:22.946Z,4.17
2017-07-22T11:45:49.521Z,4.83
2017-07-22T11:48:16.185Z,4.30
2017-07-22T11:50:42.812Z,4.80
2017-07-22T11:53:09.646Z,6.13
2017-07-22T11:55:36.271Z,9.40
2017-07-22T11:58:02.882Z,6.80
2017-07-22T12:00:29.544Z,9.00
2017-07-22T12:02:56.172Z,7.00
2017-07-22T12:05:22.757Z,5.60
2017-07-22T12:07:49.357Z,5.30
2017-07-22T12:10:15.937Z,5.20
2017-07-22T12:12:42.521Z,5.07
2017-07-22T12:15:09.409Z,4.77
2017-07-22T12:17:36.096Z,5.40
2017-07-22T12:20:02.725Z,5.40
2017-07-22T12:22:29.322Z,4.73
2017-07-22T12:24:55.902Z,5.17
2017-07-22T12:27:22.503Z,5.07
2017-07-22T12:29:49.065Z,5.33
2017-07-22T12:32:15.707Z,5.10
2017-07-22T12:34:42.322Z,5.03
2017-07-22T12:37:08.917Z,4.97
2017-07-22T12:39:35.612Z,5.13
2017-07-22T12:42:02.230Z,4.63
2017-07-22T12:44:28.826Z,4.50
2017-07-22T12:46:55.410Z,4.63
2017-07-22T12:49:21.987Z,4.20
2017-07-22T12:51:48.574Z,5.10
2017-07-22T12:54:15.170Z,4.10
2017-07-22T12:56:42.187Z,4.70
2017-07-22T12:59:08.809Z,4.63
2017-07-22T13:01:35.460Z,4.07
2017-07-22T13:04:02.050Z,4.40
2017-07-22T13:06:28.626Z,4.63
2017-07-22T13:08:55.220Z,4.40
2017-07-22T13:11:21.822Z,4.23
2017-07-22T13:13:48.404Z,4.07
2017-07-22T13:16:15.045Z,4.13
2017-07-22T13:18:41.823Z,3.97
2017-07-22T13:21:08.993Z,4.30
2017-07-22T13:23:35.919Z,4.40
2017-07-22T13:26:02.509Z,4.70
2017-07-22T13:28:29.237Z,5.63
2017-07-22T13:30:56.006Z,4.40
2017-07-22T13:33:22.594Z,3.90
2017-07-22T13:35:49.174Z,4.90
2017-07-22T13:38:15.777Z,4.40
2017-07-22T13:40:42.376Z,4.00
2017-07-22T13:43:09.384Z,4.13
2017-07-22T13:45:36.009Z,4.63
2017-07-22T13:48:02.596Z,4.10
2017-07-22T13:50:29.182Z,4.07
2017-07-22T13:52:55.817Z,3.87
2017-07-22T13:55:22.404Z,4.13
2017-07-22T13:57:48.997Z,3.93
2017-07-22T14:00:15.629Z,3.83
2017-07-22T14:02:42.283Z,4.20
2017-07-22T14:05:09.287Z,3.90
2017-07-22T14:07:36.988Z,3.83
2017-07-22T14:10:05.230Z,4.63
2017-07-22T14:12:37.661Z,4.10
2017-07-22T14:15:04.246Z,4.10
2017-07-22T14:17:30.856Z,4.40
2017-07-22T14:19:57.465Z,4.00
2017-07-22T14:22:24.098Z,3.90
2017-07-22T14:24:50.661Z,4.03
2017-07-22T14:27:17.255Z,3.63
2017-07-22T14:29:43.837Z,3.70
2017-07-22T14:32:10.728Z,3.80
2017-07-22T14:34:37.387Z,4.00
2017-07-22T14:37:03.980Z,4.00
2017-07-22T14:39:30.581Z,4.30
2017-07-22T14:41:57.159Z,3.60
2017-07-22T14:44:23.740Z,4.40
2017-07-22T14:46:50.337Z,4.00
2017-07-22T14:49:16.922Z,3.50
2017-07-22T14:51:43.565Z,4.13
2017-07-22T14:54:10.186Z,4.03
2017-07-22T14:56:36.762Z,4.40
2017-07-22T14:59:03.521Z,4.07
2017-07-22T15:01:30.586Z,3.87
2017-07-22T15:03:57.173Z,4.03
2017-07-22T15:06:23.759Z,4.20
2017-07-22T15:08:56.513Z,4.50
2017-07-22T15:11:28.984Z,3.90
2017-07-22T15:13:55.565Z,3.60
2017-07-22T15:16:22.153Z,4.30
2017-07-22T15:18:49.857Z,4.27
2017-07-22T15:21:16.442Z,3.37
2017-07-22T15:23:43.040Z,3.73
2017-07-22T15:26:09.642Z,3.70
2017-07-22T15:28:36.557Z,3.57
2017-07-22T15:31:03.242Z,3.80
2017-07-22T15:33:30.008Z,3.80
2017-07-22T15:35:56.628Z,3.50
2017-07-22T15:38:23.214Z,3.80
2017-07-22T15:40:49.808Z,3.83
2017-07-22T15:43:16.390Z,3.23
2017-07-22T15:45:42.986Z,3.40
2017-07-22T15:48:09.589Z,3.50
2017-07-22T15:50:36.667Z,3.10
2017-07-22T15:53:03.265Z,3.30
2017-07-22T15:55:29.846Z,3.40
2017-07-22T15:57:56.430Z,3.70
2017-07-22T16:00:23.005Z,3.33
2017-07-22T16:02:49.597Z,2.90
2017-07-22T16:05:16.177Z,3.10
2017-07-22T16:07:46.400Z,3.07
2017-07-22T16:10:14.151Z,3.40
2017-07-22T16:12:40.791Z,3.43
2017-07-22T16:15:07.437Z,3.40
2017-07-22T16:17:34.007Z,3.47
2017-07-22T16:20:00.608Z,3.30
2017-07-22T16:22:27.799Z,3.10
2017-07-22T16:24:54.374Z,3.23
2017-07-22T16:27:20.948Z,3.20
2017-07-22T16:29:47.537Z,2.73
2017-07-22T16:32:14.123Z,2.90
2017-07-22T16:34:40.701Z,3.37
2017-07-22T16:37:07.554Z,3.30
2017-07-22T16:39:34.138Z,3.00
2017-07-22T16:42:00.889Z,3.20
2017-07-22T16:44:27.466Z,3.03
2017-07-22T16:46:54.043Z,3.27
2017-07-22T16:49:20.633Z,3.13
2017-07-22T16:51:47.204Z,3.07
2017-07-22T16:54:13.846Z,2.83
2017-07-22T16:56:40.611Z,3.17
2017-07-22T16:59:07.333Z,2.97
2017-07-22T17:01:33.919Z,3.03
2017-07-22T17:04:00.635Z,3.30
2017-07-22T17:06:27.241Z,3.33
2017-07-22T17:08:53.822Z,3.20
2017-07-22T17:11:20.399Z,3.50
2017-07-22T17:13:46.982Z,4.60
2017-07-22T17:16:13.578Z,3.70
2017-07-22T17:18:40.423Z,4.00
2017-07-22T17:21:07.207Z,4.43
2017-07-22T17:23:33.857Z,4.20
2017-07-22T17:26:00.454Z,5.00
2017-07-22T17:28:27.027Z,3.40
2017-07-22T17:30:53.650Z,3.50
2017-07-22T17:33:20.294Z,4.63
2017-07-22T17:35:46.922Z,4.60
2017-07-22T17:38:13.607Z,4.80
2017-07-22T17:40:40.216Z,3.80
2017-07-22T17:43:07.098Z,3.87
2017-07-22T17:45:33.905Z,3.20
2017-07-22T17:48:01.501Z,3.63
2017-07-22T17:50:28.127Z,3.40
2017-07-22T17:52:55.521Z,3.53
2017-07-22T17:55:22.105Z,3.20
2017-07-22T17:57:49.677Z,3.30
2017-07-22T18:00:17.713Z,3.00
2017-07-22T18:02:44.554Z,3.23
2017-07-22T18:05:11.227Z,3.60
2017-07-22T18:07:38.985Z,3.20
2017-07-22T18:10:06.384Z,3.30
2017-07-22T18:12:33.359Z,3.17
2017-07-22T18:15:00.146Z,3.63
2017-07-22T18:17:26.738Z,3.40
2017-07-22T18:19:53.362Z,3.70
2017-07-22T18:22:20.049Z,3.90
2017-07-22T18:24:46.605Z,4.03
2017-07-22T18:27:13.234Z,3.70
2017-07-22T18:29:40.410Z,3.90
2017-07-22T18:32:07.054Z,3.60
2017-07-22T18:34:33.661Z,3.00
2017-07-22T18:37:00.336Z,3.40
2017-07-22T18:39:26.951Z,3.33
2017-07-22T18:41:53.535Z,3.30
2017-07-22T18:44:20.130Z,3.10
2017-07-22T18:46:46.714Z,4.10
2017-07-22T18:49:14.765Z,3.80
2017-07-22T18:51:41.429Z,4.00
2017-07-22T18:54:08.039Z,4.23
2017-07-22T18:56:34.630Z,7.43
2017-07-22T18:59:01.226Z,6.20
2017-07-22T19:01:27.806Z,4.53
2017-07-22T19:03:54.393Z,4.07
2017-07-22T19:06:20.977Z,3.53
2017-07-22T19:08:47.580Z,3.93
2017-07-22T19:11:14.234Z,3.90
2017-07-22T19:13:41.266Z,4.20
2017-07-22T19:16:08.079Z,3.90
2017-07-22T19:18:34.735Z,7.40
2017-07-22T19:21:01.440Z,9.80
2017-07-22T19:23:28.070Z,5.10
2017-07-22T19:25:54.649Z,3.80
2017-07-22T19:28:21.262Z,4.20
2017-07-22T19:30:47.867Z,4.30
2017-07-22T19:33:14.772Z,3.97
2017-07-22T19:35:41.367Z,3.87
2017-07-22T19:38:09.345Z,4.40
2017-07-22T19:40:36.265Z,5.03
2017-07-22T19:43:03.103Z,4.90
2017-07-22T19:45:32.528Z,4.80
2017-07-22T19:47:59.186Z,4.40
2017-07-22T19:50:25.798Z,4.30
2017-07-22T19:52:52.401Z,4.30
2017-07-22T19:55:18.987Z,5.00
2017-07-22T19:57:45.617Z,5.50
2017-07-22T20:00:13.453Z,6.40
2017-07-22T20:02:40.044Z,8.37
2017-07-22T20:05:06.645Z,4.93
2017-07-22T20:07:33.241Z,3.83
2017-07-22T20:10:00.012Z,3.80
2017-07-22T20:12:26.598Z,4.20
2017-07-22T20:14:53.218Z,4.27
2017-07-22T20:17:19.813Z,4.23
2017-07-22T20:19:46.393Z,5.07
2017-07-22T20:22:12.986Z,4.60
2017-07-22T20:24:39.815Z,5.50
2017-07-22T20:27:06.460Z,4.80
2017-07-22T20:29:42.773Z,4.70
2017-07-22T20:32:13.285Z,4.77
2017-07-22T20:34:39.985Z,4.17
2017-07-22T20:37:10.296Z,4.40
2017-07-22T20:39:36.946Z,4.40
2017-07-22T20:42:03.524Z,5.10
2017-07-22T20:44:30.109Z,6.10
2017-07-22T20:46:56.710Z,6.97
2017-07-22T20:49:23.286Z,5.57
2017-07-22T20:51:49.865Z,5.00
2017-07-22T20:54:16.536Z,5.13
2017-07-22T20:56:47.186Z,5.20
2017-07-22T20:59:14.198Z,5.20
2017-07-22T21:01:40.871Z,4.97
2017-07-22T21:04:07.488Z,6.50
2017-07-22T21:06:34.079Z,8.40
2017-07-22T21:09:00.699Z,8.90
2017-07-22T21:11:27.289Z,6.93
2017-07-22T21:13:53.866Z,5.30
2017-07-22T21:16:20.477Z,4.83
2017-07-22T21:18:48.369Z,4.60
2017-07-22T21:21:17.102Z,4.57
2017-07-22T21:23:43.691Z,4.47
2017-07-22T21:26:10.348Z,4.40
2017-07-22T21:28:36.940Z,4.70
2017-07-22T21:31:03.551Z,4.40
2017-07-22T21:33:30.173Z,3.90
2017-07-22T21:35:56.766Z,3.93
2017-07-22T21:38:23.351Z,3.90
2017-07-22T21:40:49.932Z,4.07
2017-07-22T21:43:16.509Z,3.77
2017-07-22T21:45:43.097Z,3.80
2017-07-22T21:48:09.734Z,3.73
2017-07-22T21:50:36.350Z,4.10
2017-07-22T21:53:02.930Z,3.90
2017-07-22T21:55:29.519Z,4.40
2017-07-22T21:57:56.098Z,5.10
2017-07-22T22:00:22.685Z,4.37
2017-07-22T22:02:49.262Z,4.33
2017-07-22T22:05:15.970Z,4.70
2017-07-22T22:07:42.569Z,3.93
2017-07-22T22:10:09.179Z,4.40
2017-07-22T22:12:35.815Z,5.30
2017-07-22T22:15:02.393Z,5.90
2017-07-22T22:17:28.989Z,5.90
2017-07-22T22:19:55.686Z,6.20
2017-07-22T22:22:22.246Z,5.67
2017-07-22T22:24:48.957Z,5.77
2017-07-22T22:27:15.555Z,5.67
2017-07-22T22:29:42.147Z,5.50
2017-07-22T22:32:08.766Z,5.60
2017-07-22T22:34:35.404Z,5.10
2017-07-22T22:37:01.993Z,4.93
2017-07-22T22:39:28.580Z,5.13
2017-07-22T22:41:55.297Z,5.17
2017-07-22T22:44:21.885Z,5.83
2017-07-22T22:46:48.530Z,5.70
2017-07-22T22:49:15.178Z,5.73
2017-07-22T22:51:41.844Z,5.93
2017-07-22T22:54:08.478Z,6.40
2017-07-22T22:56:35.073Z,6.37
2017-07-22T22:59:01.637Z,6.30
2017-07-22T23:01:28.230Z,6.37
2017-07-22T23:03:54.808Z,6.13
2017-07-22T23:06:21.382Z,6.97
2017-07-22T23:08:47.969Z,6.13
2017-07-22T23:11:14.551Z,6.70
2017-07-22T23:13:41.206Z,6.63
2017-07-22T23:16:07.852Z,6.93
2017-07-22T23:18:34.417Z,7.13
2017-07-22T23:21:01.005Z,7.77
2017-07-22T23:23:27.617Z,6.97
2017-07-22T23:25:54.193Z,6.80
2017-07-22T23:28:20.785Z,8.00
2017-07-22T23:30:47.373Z,7.30
2017-07-22T23:33:13.972Z,7.17
2017-07-22T23:35:40.590Z,7.20
2017-07-22T23:38:07.248Z,7.03
2017-07-22T23:40:33.861Z,7.10
2017-07-22T23:43:00.512Z,7.00
2017-07-22T23:45:27.089Z,7.17
2017-07-22T23:47:53.670Z,7.10
2017-07-22T23:50:20.259Z,7.07
2017-07-22T23:52:46.856Z,7.73
2017-07-22T23:55:13.466Z,7.40
2017-07-22T23:57:40.257Z,7.33
